Pride, Kentucky
Current Conditions -  °F | °C
As of 12:15 AM on Monday 26 Jan 2015 (Local Time) from KEHR Reporting Station
Overcast Overcast  
Wind Chill: 21°   Ceiling: 1000
Heat Index: 32°   Visibility: 10mi
Dew Point: 27°   Wind: 16mph
Humidity: 80%   Direction: 330°NNW
Pressure: 29.86"   Gusts: 25mph
Location:  37.6418°N, 87.8654°W
Report Text: KEHR 260615Z AUTO 33014G22KT 10SM OVC010 00/M03 A2986 RMK AO1
Loading
Personal Weather Stations






























Interactive Weather Map New forecast layout! Learn more

10-Day Weather Forecast

Advertisements
Track Severe Weather on mobile